sensor_id;sensor_type;location;lat;lon;timestamp;temperature;humidity
3308;DHT22;1666;48.898;9.182;2022-10-16T00:01:55;15.70;44.50
3308;DHT22;1666;48.898;9.182;2022-10-16T00:04:25;15.70;44.90
3308;DHT22;1666;48.898;9.182;2022-10-16T00:06:55;15.70;45.40
3308;DHT22;1666;48.898;9.182;2022-10-16T00:09:25;15.70;45.60
3308;DHT22;1666;48.898;9.182;2022-10-16T00:11:54;15.70;45.30
3308;DHT22;1666;48.898;9.182;2022-10-16T00:14:27;15.70;44.80
3308;DHT22;1666;48.898;9.182;2022-10-16T00:16:56;15.70;44.90
3308;DHT22;1666;48.898;9.182;2022-10-16T00:19:26;15.60;45.40
3308;DHT22;1666;48.898;9.182;2022-10-16T00:21:56;15.60;45.60
3308;DHT22;1666;48.898;9.182;2022-10-16T00:24:44;15.60;46.20
3308;DHT22;1666;48.898;9.182;2022-10-16T00:27:14;15.60;45.10
3308;DHT22;1666;48.898;9.182;2022-10-16T00:29:49;15.60;44.90
3308;DHT22;1666;48.898;9.182;2022-10-16T00:32:19;15.60;45.20
3308;DHT22;1666;48.898;9.182;2022-10-16T00:34:49;15.50;45.60
3308;DHT22;1666;48.898;9.182;2022-10-16T00:37:21;15.60;46.30
3308;DHT22;1666;48.898;9.182;2022-10-16T00:39:51;15.50;46.00
3308;DHT22;1666;48.898;9.182;2022-10-16T00:42:20;15.50;46.10
3308;DHT22;1666;48.898;9.182;2022-10-16T00:44:55;15.60;46.20
3308;DHT22;1666;48.898;9.182;2022-10-16T00:47:29;15.60;46.20
3308;DHT22;1666;48.898;9.182;2022-10-16T00:50:04;15.60;46.00
3308;DHT22;1666;48.898;9.182;2022-10-16T00:52:37;15.60;45.50
3308;DHT22;1666;48.898;9.182;2022-10-16T00:55:09;15.60;45.60
3308;DHT22;1666;48.898;9.182;2022-10-16T00:57:39;15.50;46.00
3308;DHT22;1666;48.898;9.182;2022-10-16T01:00:15;15.60;46.10
3308;DHT22;1666;48.898;9.182;2022-10-16T01:02:52;15.60;45.20
3308;DHT22;1666;48.898;9.182;2022-10-16T01:05:22;15.70;44.60
3308;DHT22;1666;48.898;9.182;2022-10-16T01:07:57;15.70;44.00
3308;DHT22;1666;48.898;9.182;2022-10-16T01:10:35;15.80;43.00
3308;DHT22;1666;48.898;9.182;2022-10-16T01:13:07;15.80;42.50
3308;DHT22;1666;48.898;9.182;2022-10-16T01:15:44;15.70;43.30
3308;DHT22;1666;48.898;9.182;2022-10-16T01:18:24;15.70;43.50
3308;DHT22;1666;48.898;9.182;2022-10-16T01:21:01;15.70;44.40
3308;DHT22;1666;48.898;9.182;2022-10-16T01:23:45;15.70;44.60
3308;DHT22;1666;48.898;9.182;2022-10-16T01:26:30;15.60;45.20
3308;DHT22;1666;48.898;9.182;2022-10-16T01:29:08;15.70;44.60
3308;DHT22;1666;48.898;9.182;2022-10-16T01:31:46;15.70;43.10
3308;DHT22;1666;48.898;9.182;2022-10-16T01:34:18;15.70;43.70
3308;DHT22;1666;48.898;9.182;2022-10-16T01:36:51;15.60;44.30
3308;DHT22;1666;48.898;9.182;2022-10-16T01:39:24;15.60;44.50
3308;DHT22;1666;48.898;9.182;2022-10-16T01:42:01;15.70;43.80
3308;DHT22;1666;48.898;9.182;2022-10-16T01:44:37;15.70;43.20
3308;DHT22;1666;48.898;9.182;2022-10-16T01:47:09;15.70;43.00
3308;DHT22;1666;48.898;9.182;2022-10-16T01:49:40;15.70;42.90
3308;DHT22;1666;48.898;9.182;2022-10-16T01:52:15;15.70;42.20
3308;DHT22;1666;48.898;9.182;2022-10-16T01:54:47;15.70;42.50
3308;DHT22;1666;48.898;9.182;2022-10-16T01:57:20;15.60;43.20
3308;DHT22;1666;48.898;9.182;2022-10-16T01:59:58;15.70;43.00
3308;DHT22;1666;48.898;9.182;2022-10-16T02:02:30;15.60;42.90
3308;DHT22;1666;48.898;9.182;2022-10-16T02:05:05;15.70;42.80
3308;DHT22;1666;48.898;9.182;2022-10-16T02:07:38;15.70;43.10
3308;DHT22;1666;48.898;9.182;2022-10-16T02:10:09;15.60;42.90
3308;DHT22;1666;48.898;9.182;2022-10-16T02:12:42;15.70;43.70
3308;DHT22;1666;48.898;9.182;2022-10-16T02:15:16;15.70;43.30
3308;DHT22;1666;48.898;9.182;2022-10-16T02:17:46;15.70;43.40
3308;DHT22;1666;48.898;9.182;2022-10-16T02:20:16;15.80;42.20
3308;DHT22;1666;48.898;9.182;2022-10-16T02:22:48;15.80;42.20
3308;DHT22;1666;48.898;9.182;2022-10-16T02:25:24;15.80;42.80
3308;DHT22;1666;48.898;9.182;2022-10-16T02:27:58;15.80;42.40
3308;DHT22;1666;48.898;9.182;2022-10-16T02:30:36;15.80;42.00
3308;DHT22;1666;48.898;9.182;2022-10-16T02:33:10;15.80;42.20
3308;DHT22;1666;48.898;9.182;2022-10-16T02:35:41;15.80;41.90
3308;DHT22;1666;48.898;9.182;2022-10-16T02:38:12;15.80;42.20
3308;DHT22;1666;48.898;9.182;2022-10-16T02:40:43;15.70;42.50
3308;DHT22;1666;48.898;9.182;2022-10-16T02:43:13;15.70;42.40
3308;DHT22;1666;48.898;9.182;2022-10-16T02:45:46;15.80;42.00
3308;DHT22;1666;48.898;9.182;2022-10-16T02:48:15;15.80;42.10
3308;DHT22;1666;48.898;9.182;2022-10-16T02:50:45;15.70;42.00
3308;DHT22;1666;48.898;9.182;2022-10-16T02:53:15;15.70;42.40
3308;DHT22;1666;48.898;9.182;2022-10-16T02:55:45;15.70;42.00
3308;DHT22;1666;48.898;9.182;2022-10-16T02:58:14;15.70;42.60
3308;DHT22;1666;48.898;9.182;2022-10-16T03:00:47;15.70;42.40
3308;DHT22;1666;48.898;9.182;2022-10-16T03:03:17;15.70;42.80
3308;DHT22;1666;48.898;9.182;2022-10-16T03:05:46;15.70;43.80
3308;DHT22;1666;48.898;9.182;2022-10-16T03:08:16;15.60;44.20
3308;DHT22;1666;48.898;9.182;2022-10-16T03:10:50;15.60;44.60
3308;DHT22;1666;48.898;9.182;2022-10-16T03:13:20;15.60;45.10
3308;DHT22;1666;48.898;9.182;2022-10-16T03:15:52;15.50;45.60
3308;DHT22;1666;48.898;9.182;2022-10-16T03:18:22;15.50;46.00
3308;DHT22;1666;48.898;9.182;2022-10-16T03:20:52;15.50;46.20
3308;DHT22;1666;48.898;9.182;2022-10-16T03:23:22;15.40;46.60
3308;DHT22;1666;48.898;9.182;2022-10-16T03:25:51;15.40;48.00
3308;DHT22;1666;48.898;9.182;2022-10-16T03:28:21;15.40;47.30
3308;DHT22;1666;48.898;9.182;2022-10-16T03:30:54;15.40;47.40
3308;DHT22;1666;48.898;9.182;2022-10-16T03:33:23;15.40;47.70
3308;DHT22;1666;48.898;9.182;2022-10-16T03:35:54;15.40;47.30
3308;DHT22;1666;48.898;9.182;2022-10-16T03:38:24;15.30;47.20
3308;DHT22;1666;48.898;9.182;2022-10-16T03:40:53;15.40;47.50
3308;DHT22;1666;48.898;9.182;2022-10-16T03:43:23;15.40;47.20
3308;DHT22;1666;48.898;9.182;2022-10-16T03:45:55;15.40;47.50
3308;DHT22;1666;48.898;9.182;2022-10-16T03:48:25;15.30;47.60
3308;DHT22;1666;48.898;9.182;2022-10-16T03:50:55;15.30;47.60
3308;DHT22;1666;48.898;9.182;2022-10-16T03:53:25;15.30;47.70
3308;DHT22;1666;48.898;9.182;2022-10-16T03:55:55;15.30;47.90
3308;DHT22;1666;48.898;9.182;2022-10-16T03:58:25;15.30;48.30
3308;DHT22;1666;48.898;9.182;2022-10-16T04:00:57;15.30;48.70
3308;DHT22;1666;48.898;9.182;2022-10-16T04:03:27;15.30;48.70
3308;DHT22;1666;48.898;9.182;2022-10-16T04:05:56;15.30;48.70
3308;DHT22;1666;48.898;9.182;2022-10-16T04:08:26;15.30;48.70
3308;DHT22;1666;48.898;9.182;2022-10-16T04:10:56;15.20;48.80
3308;DHT22;1666;48.898;9.182;2022-10-16T04:13:26;15.20;48.70
3308;DHT22;1666;48.898;9.182;2022-10-16T04:15:58;15.20;48.90
3308;DHT22;1666;48.898;9.182;2022-10-16T04:18:28;15.20;48.90
3308;DHT22;1666;48.898;9.182;2022-10-16T04:21:02;15.20;49.00
3308;DHT22;1666;48.898;9.182;2022-10-16T04:23:32;15.20;48.30
3308;DHT22;1666;48.898;9.182;2022-10-16T04:26:02;15.20;48.40
3308;DHT22;1666;48.898;9.182;2022-10-16T04:28:32;15.20;48.30
3308;DHT22;1666;48.898;9.182;2022-10-16T04:31:06;15.20;48.50
3308;DHT22;1666;48.898;9.182;2022-10-16T04:33:36;15.20;49.10
3308;DHT22;1666;48.898;9.182;2022-10-16T04:36:06;15.20;49.40
3308;DHT22;1666;48.898;9.182;2022-10-16T04:38:35;15.20;49.20
3308;DHT22;1666;48.898;9.182;2022-10-16T04:41:07;15.10;49.20
3308;DHT22;1666;48.898;9.182;2022-10-16T04:43:36;15.10;49.60
3308;DHT22;1666;48.898;9.182;2022-10-16T04:46:09;15.20;49.50
3308;DHT22;1666;48.898;9.182;2022-10-16T04:48:38;15.20;49.40
3308;DHT22;1666;48.898;9.182;2022-10-16T04:51:08;15.10;49.80
3308;DHT22;1666;48.898;9.182;2022-10-16T04:53:38;15.10;50.10
3308;DHT22;1666;48.898;9.182;2022-10-16T04:56:08;15.10;50.10
3308;DHT22;1666;48.898;9.182;2022-10-16T04:58:37;15.10;50.20
3308;DHT22;1666;48.898;9.182;2022-10-16T05:01:10;15.10;50.30
3308;DHT22;1666;48.898;9.182;2022-10-16T05:03:39;15.10;49.90
3308;DHT22;1666;48.898;9.182;2022-10-16T05:06:09;15.10;50.20
3308;DHT22;1666;48.898;9.182;2022-10-16T05:08:39;15.10;50.40
3308;DHT22;1666;48.898;9.182;2022-10-16T05:11:09;15.10;51.30
3308;DHT22;1666;48.898;9.182;2022-10-16T05:13:38;15.00;51.40
3308;DHT22;1666;48.898;9.182;2022-10-16T05:16:11;15.00;51.40
3308;DHT22;1666;48.898;9.182;2022-10-16T05:18:40;15.00;51.90
3308;DHT22;1666;48.898;9.182;2022-10-16T05:21:10;15.00;52.70
3308;DHT22;1666;48.898;9.182;2022-10-16T05:23:40;14.90;53.50
3308;DHT22;1666;48.898;9.182;2022-10-16T05:26:09;14.80;54.00
3308;DHT22;1666;48.898;9.182;2022-10-16T05:28:39;14.80;55.10
3308;DHT22;1666;48.898;9.182;2022-10-16T05:31:12;14.80;55.40
3308;DHT22;1666;48.898;9.182;2022-10-16T05:33:41;14.70;55.90
3308;DHT22;1666;48.898;9.182;2022-10-16T05:36:11;14.80;56.80
3308;DHT22;1666;48.898;9.182;2022-10-16T05:38:41;14.70;57.20
3308;DHT22;1666;48.898;9.182;2022-10-16T05:41:11;14.70;57.70
3308;DHT22;1666;48.898;9.182;2022-10-16T05:43:40;14.70;58.00
3308;DHT22;1666;48.898;9.182;2022-10-16T05:46:13;14.70;58.10
3308;DHT22;1666;48.898;9.182;2022-10-16T05:48:42;14.70;59.00
3308;DHT22;1666;48.898;9.182;2022-10-16T05:51:13;14.60;59.10
3308;DHT22;1666;48.898;9.182;2022-10-16T05:53:43;14.60;59.60
3308;DHT22;1666;48.898;9.182;2022-10-16T05:56:13;14.60;60.30
3308;DHT22;1666;48.898;9.182;2022-10-16T05:58:43;14.60;60.70
3308;DHT22;1666;48.898;9.182;2022-10-16T06:01:18;14.60;61.50
3308;DHT22;1666;48.898;9.182;2022-10-16T06:03:51;14.60;61.60
3308;DHT22;1666;48.898;9.182;2022-10-16T06:06:23;14.60;61.70
3308;DHT22;1666;48.898;9.182;2022-10-16T06:08:54;14.60;61.70
3308;DHT22;1666;48.898;9.182;2022-10-16T06:11:26;14.60;62.20
3308;DHT22;1666;48.898;9.182;2022-10-16T06:13:58;14.70;62.60
3308;DHT22;1666;48.898;9.182;2022-10-16T06:16:32;14.70;62.50
3308;DHT22;1666;48.898;9.182;2022-10-16T06:19:03;14.80;62.20
3308;DHT22;1666;48.898;9.182;2022-10-16T06:21:35;14.70;62.00
3308;DHT22;1666;48.898;9.182;2022-10-16T06:24:05;14.70;62.30
3308;DHT22;1666;48.898;9.182;2022-10-16T06:26:34;14.70;61.80
3308;DHT22;1666;48.898;9.182;2022-10-16T06:29:04;14.70;61.60
3308;DHT22;1666;48.898;9.182;2022-10-16T06:31:37;14.80;61.90
3308;DHT22;1666;48.898;9.182;2022-10-16T06:34:09;14.90;60.40
3308;DHT22;1666;48.898;9.182;2022-10-16T06:36:39;14.90;59.40
3308;DHT22;1666;48.898;9.182;2022-10-16T06:39:10;15.00;58.80
3308;DHT22;1666;48.898;9.182;2022-10-16T06:41:40;15.00;57.90
3308;DHT22;1666;48.898;9.182;2022-10-16T06:44:09;15.10;56.50
3308;DHT22;1666;48.898;9.182;2022-10-16T06:46:42;15.20;54.80
3308;DHT22;1666;48.898;9.182;2022-10-16T06:49:11;15.20;53.00
3308;DHT22;1666;48.898;9.182;2022-10-16T06:51:47;15.30;52.60
3308;DHT22;1666;48.898;9.182;2022-10-16T06:54:17;15.30;51.20
3308;DHT22;1666;48.898;9.182;2022-10-16T06:56:47;15.30;51.40
3308;DHT22;1666;48.898;9.182;2022-10-16T06:59:17;15.40;51.20
3308;DHT22;1666;48.898;9.182;2022-10-16T07:01:49;15.40;50.20
3308;DHT22;1666;48.898;9.182;2022-10-16T07:04:19;15.50;49.70
3308;DHT22;1666;48.898;9.182;2022-10-16T07:06:49;15.60;48.70
3308;DHT22;1666;48.898;9.182;2022-10-16T07:09:18;15.60;47.60
3308;DHT22;1666;48.898;9.182;2022-10-16T07:11:48;15.60;46.60
3308;DHT22;1666;48.898;9.182;2022-10-16T07:14:20;15.70;47.80
3308;DHT22;1666;48.898;9.182;2022-10-16T07:16:53;15.70;46.30
3308;DHT22;1666;48.898;9.182;2022-10-16T07:19:22;15.70;46.30
3308;DHT22;1666;48.898;9.182;2022-10-16T07:21:56;15.70;45.20
3308;DHT22;1666;48.898;9.182;2022-10-16T07:24:26;15.80;44.50
3308;DHT22;1666;48.898;9.182;2022-10-16T07:26:56;15.70;44.40
3308;DHT22;1666;48.898;9.182;2022-10-16T07:29:25;15.80;45.20
3308;DHT22;1666;48.898;9.182;2022-10-16T07:31:58;15.70;44.00
3308;DHT22;1666;48.898;9.182;2022-10-16T07:34:28;15.70;45.70
3308;DHT22;1666;48.898;9.182;2022-10-16T07:36:57;15.70;46.30
3308;DHT22;1666;48.898;9.182;2022-10-16T07:39:27;15.70;46.40
3308;DHT22;1666;48.898;9.182;2022-10-16T07:41:57;15.70;46.90
3308;DHT22;1666;48.898;9.182;2022-10-16T07:44:27;15.70;46.30
3308;DHT22;1666;48.898;9.182;2022-10-16T07:46:59;15.60;47.20
3308;DHT22;1666;48.898;9.182;2022-10-16T07:49:29;15.70;46.30
3308;DHT22;1666;48.898;9.182;2022-10-16T07:51:59;15.70;44.20
3308;DHT22;1666;48.898;9.182;2022-10-16T07:54:29;15.80;44.20
3308;DHT22;1666;48.898;9.182;2022-10-16T07:56:58;15.80;44.40
3308;DHT22;1666;48.898;9.182;2022-10-16T07:59:28;15.90;42.60
3308;DHT22;1666;48.898;9.182;2022-10-16T08:02:00;16.10;41.20
3308;DHT22;1666;48.898;9.182;2022-10-16T08:04:30;16.20;40.80
3308;DHT22;1666;48.898;9.182;2022-10-16T08:07:00;16.30;39.90
3308;DHT22;1666;48.898;9.182;2022-10-16T08:09:30;16.40;38.40
3308;DHT22;1666;48.898;9.182;2022-10-16T08:11:59;16.60;35.70
3308;DHT22;1666;48.898;9.182;2022-10-16T08:14:29;16.80;34.50
3308;DHT22;1666;48.898;9.182;2022-10-16T08:17:01;16.80;30.70
3308;DHT22;1666;48.898;9.182;2022-10-16T08:19:31;16.90;30.80
3308;DHT22;1666;48.898;9.182;2022-10-16T08:22:01;17.10;29.70
3308;DHT22;1666;48.898;9.182;2022-10-16T08:24:31;17.30;28.40
3308;DHT22;1666;48.898;9.182;2022-10-16T08:27:01;17.50;26.20
3308;DHT22;1666;48.898;9.182;2022-10-16T08:29:31;17.70;24.60
3308;DHT22;1666;48.898;9.182;2022-10-16T08:32:05;17.90;21.70
3308;DHT22;1666;48.898;9.182;2022-10-16T08:34:35;17.90;21.40
3308;DHT22;1666;48.898;9.182;2022-10-16T08:37:05;17.90;21.70
3308;DHT22;1666;48.898;9.182;2022-10-16T08:39:37;17.80;22.30
3308;DHT22;1666;48.898;9.182;2022-10-16T08:42:19;17.80;22.50
3308;DHT22;1666;48.898;9.182;2022-10-16T08:45:18;17.90;20.90
3308;DHT22;1666;48.898;9.182;2022-10-16T08:47:59;17.90;19.90
3308;DHT22;1666;48.898;9.182;2022-10-16T08:50:32;18.00;19.60
3308;DHT22;1666;48.898;9.182;2022-10-16T08:53:04;18.00;19.30
3308;DHT22;1666;48.898;9.182;2022-10-16T08:55:38;18.10;19.50
3308;DHT22;1666;48.898;9.182;2022-10-16T08:58:12;18.20;20.30
3308;DHT22;1666;48.898;9.182;2022-10-16T09:00:46;18.20;18.40
3308;DHT22;1666;48.898;9.182;2022-10-16T09:03:32;18.10;16.80
3308;DHT22;1666;48.898;9.182;2022-10-16T09:06:26;18.00;18.60
3308;DHT22;1666;48.898;9.182;2022-10-16T09:11:52;18.00;19.00
3308;DHT22;1666;48.898;9.182;2022-10-16T09:14:36;18.10;18.80
3308;DHT22;1666;48.898;9.182;2022-10-16T09:17:24;18.20;19.20
3308;DHT22;1666;48.898;9.182;2022-10-16T09:20:08;18.20;20.70
3308;DHT22;1666;48.898;9.182;2022-10-16T09:22:41;18.30;19.50
3308;DHT22;1666;48.898;9.182;2022-10-16T09:25:13;18.30;17.70
3308;DHT22;1666;48.898;9.182;2022-10-16T09:27:47;18.50;17.70
3308;DHT22;1666;48.898;9.182;2022-10-16T09:30:19;18.60;17.50
3308;DHT22;1666;48.898;9.182;2022-10-16T09:32:51;18.60;16.40
3308;DHT22;1666;48.898;9.182;2022-10-16T09:35:31;18.60;16.10
3308;DHT22;1666;48.898;9.182;2022-10-16T09:38:02;18.80;14.70
3308;DHT22;1666;48.898;9.182;2022-10-16T09:40:33;18.80;13.80
3308;DHT22;1666;48.898;9.182;2022-10-16T09:43:16;19.00;13.40
3308;DHT22;1666;48.898;9.182;2022-10-16T09:45:54;19.20;12.20
3308;DHT22;1666;48.898;9.182;2022-10-16T09:48:27;19.30;9.50
3308;DHT22;1666;48.898;9.182;2022-10-16T09:51:02;19.60;8.00
3308;DHT22;1666;48.898;9.182;2022-10-16T09:53:39;19.80;7.00
3308;DHT22;1666;48.898;9.182;2022-10-16T09:56:11;20.00;7.10
3308;DHT22;1666;48.898;9.182;2022-10-16T09:58:42;20.00;5.30
3308;DHT22;1666;48.898;9.182;2022-10-16T10:01:14;20.10;5.80
3308;DHT22;1666;48.898;9.182;2022-10-16T10:03:44;20.20;3.40
3308;DHT22;1666;48.898;9.182;2022-10-16T10:06:22;20.20;3.40
3308;DHT22;1666;48.898;9.182;2022-10-16T10:09:05;20.20;1.90
3308;DHT22;1666;48.898;9.182;2022-10-16T10:11:53;20.00;1.50
3308;DHT22;1666;48.898;9.182;2022-10-16T10:14:26;19.90;3.20
3308;DHT22;1666;48.898;9.182;2022-10-16T10:17:13;19.90;2.40
3308;DHT22;1666;48.898;9.182;2022-10-16T10:19:50;20.00;3.30
3308;DHT22;1666;48.898;9.182;2022-10-16T10:22:29;20.30;3.20
3308;DHT22;1666;48.898;9.182;2022-10-16T10:25:20;20.50;1.00
3308;DHT22;1666;48.898;9.182;2022-10-16T10:28:07;20.90;1.00
3308;DHT22;1666;48.898;9.182;2022-10-16T10:30:43;21.10;1.00
3308;DHT22;1666;48.898;9.182;2022-10-16T10:33:23;20.90;1.00
3308;DHT22;1666;48.898;9.182;2022-10-16T10:36:01;20.90;1.00
3308;DHT22;1666;48.898;9.182;2022-10-16T10:38:42;20.90;1.00
3308;DHT22;1666;48.898;9.182;2022-10-16T10:41:33;21.10;1.00
3308;DHT22;1666;48.898;9.182;2022-10-16T10:44:12;21.10;1.00
3308;DHT22;1666;48.898;9.182;2022-10-16T10:46:50;21.10;1.00
3308;DHT22;1666;48.898;9.182;2022-10-16T10:49:36;21.20;1.00
3308;DHT22;1666;48.898;9.182;2022-10-16T10:52:33;21.40;1.00
3308;DHT22;1666;48.898;9.182;2022-10-16T10:55:17;21.60;1.00
3308;DHT22;1666;48.898;9.182;2022-10-16T10:58:10;21.80;1.00
3308;DHT22;1666;48.898;9.182;2022-10-16T11:00:46;22.40;1.00
3308;DHT22;1666;48.898;9.182;2022-10-16T11:03:31;22.70;1.00
3308;DHT22;1666;48.898;9.182;2022-10-16T11:06:07;22.70;1.00
3308;DHT22;1666;48.898;9.182;2022-10-16T11:08:42;22.80;1.00
3308;DHT22;1666;48.898;9.182;2022-10-16T11:11:20;22.60;1.00
3308;DHT22;1666;48.898;9.182;2022-10-16T11:13:57;22.70;1.00
3308;DHT22;1666;48.898;9.182;2022-10-16T11:16:31;22.90;1.00
3308;DHT22;1666;48.898;9.182;2022-10-16T11:19:08;22.80;1.00
3308;DHT22;1666;48.898;9.182;2022-10-16T11:21:45;22.80;1.00
3308;DHT22;1666;48.898;9.182;2022-10-16T11:24:22;22.80;1.00
3308;DHT22;1666;48.898;9.182;2022-10-16T11:26:56;22.50;1.00
3308;DHT22;1666;48.898;9.182;2022-10-16T11:29:31;22.70;1.00
3308;DHT22;1666;48.898;9.182;2022-10-16T11:32:06;22.20;1.00
3308;DHT22;1666;48.898;9.182;2022-10-16T11:34:44;22.40;1.00
3308;DHT22;1666;48.898;9.182;2022-10-16T11:37:17;22.60;1.00
3308;DHT22;1666;48.898;9.182;2022-10-16T11:39:50;22.70;1.00
3308;DHT22;1666;48.898;9.182;2022-10-16T11:42:32;22.80;1.00
3308;DHT22;1666;48.898;9.182;2022-10-16T11:45:22;22.90;1.00
3308;DHT22;1666;48.898;9.182;2022-10-16T11:47:58;22.90;1.00
3308;DHT22;1666;48.898;9.182;2022-10-16T11:50:34;22.90;1.00
3308;DHT22;1666;48.898;9.182;2022-10-16T11:53:13;22.90;1.00
3308;DHT22;1666;48.898;9.182;2022-10-16T11:55:45;22.80;1.00
3308;DHT22;1666;48.898;9.182;2022-10-16T11:58:23;22.80;1.00
3308;DHT22;1666;48.898;9.182;2022-10-16T12:00:59;22.60;1.00
3308;DHT22;1666;48.898;9.182;2022-10-16T12:03:35;22.70;1.00
3308;DHT22;1666;48.898;9.182;2022-10-16T12:06:23;22.60;1.00
3308;DHT22;1666;48.898;9.182;2022-10-16T12:08:55;22.80;1.00
3308;DHT22;1666;48.898;9.182;2022-10-16T12:11:34;22.50;1.00
3308;DHT22;1666;48.898;9.182;2022-10-16T12:14:21;22.50;1.00
3308;DHT22;1666;48.898;9.182;2022-10-16T12:16:53;22.60;1.00
3308;DHT22;1666;48.898;9.182;2022-10-16T12:19:26;22.30;1.00
3308;DHT22;1666;48.898;9.182;2022-10-16T12:21:57;22.20;1.00
3308;DHT22;1666;48.898;9.182;2022-10-16T12:24:34;22.20;1.00
3308;DHT22;1666;48.898;9.182;2022-10-16T12:27:06;22.30;1.00
3308;DHT22;1666;48.898;9.182;2022-10-16T12:29:41;22.20;1.00
3308;DHT22;1666;48.898;9.182;2022-10-16T12:32:25;22.20;1.00
3308;DHT22;1666;48.898;9.182;2022-10-16T12:35:19;22.20;1.00
3308;DHT22;1666;48.898;9.182;2022-10-16T12:37:50;22.20;1.00
3308;DHT22;1666;48.898;9.182;2022-10-16T12:40:27;22.20;1.00
3308;DHT22;1666;48.898;9.182;2022-10-16T12:42:57;22.20;1.00
3308;DHT22;1666;48.898;9.182;2022-10-16T12:45:32;22.20;1.00
3308;DHT22;1666;48.898;9.182;2022-10-16T12:48:18;22.30;1.00
3308;DHT22;1666;48.898;9.182;2022-10-16T12:50:48;22.40;1.00
3308;DHT22;1666;48.898;9.182;2022-10-16T12:53:20;22.50;1.00
3308;DHT22;1666;48.898;9.182;2022-10-16T12:56:00;22.40;1.00
3308;DHT22;1666;48.898;9.182;2022-10-16T13:01:34;22.10;1.00
3308;DHT22;1666;48.898;9.182;2022-10-16T13:07:05;22.20;1.00
3308;DHT22;1666;48.898;9.182;2022-10-16T13:09:50;22.20;1.00
3308;DHT22;1666;48.898;9.182;2022-10-16T13:12:46;22.30;1.00
3308;DHT22;1666;48.898;9.182;2022-10-16T13:15:31;22.40;1.00
3308;DHT22;1666;48.898;9.182;2022-10-16T13:18:12;22.50;1.00
3308;DHT22;1666;48.898;9.182;2022-10-16T13:20:59;22.50;1.00
3308;DHT22;1666;48.898;9.182;2022-10-16T13:23:36;22.40;1.00
3308;DHT22;1666;48.898;9.182;2022-10-16T13:26:37;22.40;1.00
3308;DHT22;1666;48.898;9.182;2022-10-16T13:29:10;22.30;1.00
3308;DHT22;1666;48.898;9.182;2022-10-16T13:31:40;22.40;1.00
3308;DHT22;1666;48.898;9.182;2022-10-16T13:34:18;22.30;1.00
3308;DHT22;1666;48.898;9.182;2022-10-16T13:36:50;22.30;1.00
3308;DHT22;1666;48.898;9.182;2022-10-16T13:39:22;22.30;1.00
3308;DHT22;1666;48.898;9.182;2022-10-16T13:42:03;22.40;1.00
3308;DHT22;1666;48.898;9.182;2022-10-16T13:44:39;22.40;1.00
3308;DHT22;1666;48.898;9.182;2022-10-16T13:47:16;22.30;1.00
3308;DHT22;1666;48.898;9.182;2022-10-16T13:49:59;22.30;1.00
3308;DHT22;1666;48.898;9.182;2022-10-16T13:52:29;22.30;1.00
3308;DHT22;1666;48.898;9.182;2022-10-16T13:54:59;22.40;1.00
3308;DHT22;1666;48.898;9.182;2022-10-16T13:57:29;22.50;1.00
3308;DHT22;1666;48.898;9.182;2022-10-16T13:59:59;22.60;1.00
3308;DHT22;1666;48.898;9.182;2022-10-16T14:02:30;22.60;1.00
3308;DHT22;1666;48.898;9.182;2022-10-16T14:05:07;22.40;1.00
3308;DHT22;1666;48.898;9.182;2022-10-16T14:07:40;22.40;1.00
3308;DHT22;1666;48.898;9.182;2022-10-16T14:10:21;22.30;1.00
3308;DHT22;1666;48.898;9.182;2022-10-16T14:12:56;22.10;1.00
3308;DHT22;1666;48.898;9.182;2022-10-16T14:15:26;22.00;1.00
3308;DHT22;1666;48.898;9.182;2022-10-16T14:17:56;22.00;1.00
3308;DHT22;1666;48.898;9.182;2022-10-16T14:20:31;22.00;1.00
3308;DHT22;1666;48.898;9.182;2022-10-16T14:23:04;22.00;1.00
3308;DHT22;1666;48.898;9.182;2022-10-16T14:25:35;22.00;1.00
3308;DHT22;1666;48.898;9.182;2022-10-16T14:28:15;22.00;1.00
3308;DHT22;1666;48.898;9.182;2022-10-16T14:30:51;22.00;1.00
3308;DHT22;1666;48.898;9.182;2022-10-16T14:33:23;21.90;1.00
3308;DHT22;1666;48.898;9.182;2022-10-16T14:36:03;22.00;1.00
3308;DHT22;1666;48.898;9.182;2022-10-16T14:38:34;22.00;1.00
3308;DHT22;1666;48.898;9.182;2022-10-16T14:41:05;22.00;1.00
3308;DHT22;1666;48.898;9.182;2022-10-16T14:43:37;21.90;1.00
3308;DHT22;1666;48.898;9.182;2022-10-16T14:46:11;22.00;1.00
3308;DHT22;1666;48.898;9.182;2022-10-16T14:48:43;21.90;1.00
3308;DHT22;1666;48.898;9.182;2022-10-16T14:51:17;21.90;1.00
3308;DHT22;1666;48.898;9.182;2022-10-16T14:53:47;22.00;1.00
3308;DHT22;1666;48.898;9.182;2022-10-16T14:56:19;21.90;1.00
3308;DHT22;1666;48.898;9.182;2022-10-16T14:58:50;22.00;1.00
3308;DHT22;1666;48.898;9.182;2022-10-16T15:01:20;22.00;1.00
3308;DHT22;1666;48.898;9.182;2022-10-16T15:03:50;21.90;1.00
3308;DHT22;1666;48.898;9.182;2022-10-16T15:06:24;21.90;1.00
3308;DHT22;1666;48.898;9.182;2022-10-16T15:08:54;21.80;1.00
3308;DHT22;1666;48.898;9.182;2022-10-16T15:11:23;21.90;1.00
3308;DHT22;1666;48.898;9.182;2022-10-16T15:13:53;21.90;1.00
3308;DHT22;1666;48.898;9.182;2022-10-16T15:16:23;21.90;1.00
3308;DHT22;1666;48.898;9.182;2022-10-16T15:18:53;21.90;1.00
3308;DHT22;1666;48.898;9.182;2022-10-16T15:21:28;21.80;1.00
3308;DHT22;1666;48.898;9.182;2022-10-16T15:23:59;21.80;1.00
3308;DHT22;1666;48.898;9.182;2022-10-16T15:26:29;21.70;1.00
3308;DHT22;1666;48.898;9.182;2022-10-16T15:28:59;21.60;1.00
3308;DHT22;1666;48.898;9.182;2022-10-16T15:31:29;21.60;1.00
3308;DHT22;1666;48.898;9.182;2022-10-16T15:33:59;21.50;1.00
3308;DHT22;1666;48.898;9.182;2022-10-16T15:36:35;21.40;1.00
3308;DHT22;1666;48.898;9.182;2022-10-16T15:39:05;21.40;1.00
3308;DHT22;1666;48.898;9.182;2022-10-16T15:41:35;21.50;1.00
3308;DHT22;1666;48.898;9.182;2022-10-16T15:44:25;21.40;1.00
3308;DHT22;1666;48.898;9.182;2022-10-16T15:46:57;21.40;1.00
3308;DHT22;1666;48.898;9.182;2022-10-16T15:49:28;21.40;1.00
3308;DHT22;1666;48.898;9.182;2022-10-16T15:52:00;21.30;1.00
3308;DHT22;1666;48.898;9.182;2022-10-16T15:54:30;21.30;1.00
3308;DHT22;1666;48.898;9.182;2022-10-16T15:57:00;21.30;1.00
3308;DHT22;1666;48.898;9.182;2022-10-16T15:59:29;21.30;1.00
3308;DHT22;1666;48.898;9.182;2022-10-16T16:01:59;21.40;1.00
3308;DHT22;1666;48.898;9.182;2022-10-16T16:04:29;21.40;1.00
3308;DHT22;1666;48.898;9.182;2022-10-16T16:07:17;21.30;1.00
3308;DHT22;1666;48.898;9.182;2022-10-16T16:09:47;21.20;1.00
3308;DHT22;1666;48.898;9.182;2022-10-16T16:12:17;21.20;1.00
3308;DHT22;1666;48.898;9.182;2022-10-16T16:14:47;21.00;1.00
3308;DHT22;1666;48.898;9.182;2022-10-16T16:17:18;21.00;1.00
3308;DHT22;1666;48.898;9.182;2022-10-16T16:19:47;20.90;1.00
3308;DHT22;1666;48.898;9.182;2022-10-16T16:22:20;20.70;1.00
3308;DHT22;1666;48.898;9.182;2022-10-16T16:24:49;20.80;1.00
3308;DHT22;1666;48.898;9.182;2022-10-16T16:27:19;20.70;1.00
3308;DHT22;1666;48.898;9.182;2022-10-16T16:29:52;20.60;1.00
3308;DHT22;1666;48.898;9.182;2022-10-16T16:32:22;20.50;1.00
3308;DHT22;1666;48.898;9.182;2022-10-16T16:34:52;20.30;1.00
3308;DHT22;1666;48.898;9.182;2022-10-16T16:37:24;20.30;1.00
3308;DHT22;1666;48.898;9.182;2022-10-16T16:39:55;20.30;1.00
3308;DHT22;1666;48.898;9.182;2022-10-16T16:42:25;20.20;1.00
3308;DHT22;1666;48.898;9.182;2022-10-16T16:44:55;20.20;1.00
3308;DHT22;1666;48.898;9.182;2022-10-16T16:47:25;20.20;1.00
3308;DHT22;1666;48.898;9.182;2022-10-16T16:49:55;20.10;1.00
3308;DHT22;1666;48.898;9.182;2022-10-16T16:52:29;20.10;1.00
3308;DHT22;1666;48.898;9.182;2022-10-16T16:54:58;20.00;1.00
3308;DHT22;1666;48.898;9.182;2022-10-16T16:57:28;19.90;1.00
3308;DHT22;1666;48.898;9.182;2022-10-16T16:59:58;19.90;1.00